Time;durP1;ratioP1;P1;durP2;ratioP2;P2;SDS_P1;SDS_P2;PMS_P1;PMS_P2;Temp;Humidity;BMP_temperature;BMP_pressure;BME280_temperature;BME280_humidity;BME280_pressure;Samples;Min_cycle;Max_cycle;Signal;HPM_P1;HPM_P2
2023/07/15 03:01:57;;;;;;;;;;;27.70;39.90;;;;;;5186323;23;45581;-60
2023/07/15 03:04:23;;;;;;;;;;;27.70;39.90;;;;;;4882082;28;46207;-59
2023/07/15 03:06:48;;;;;;;;;;;27.60;40.40;;;;;;4887249;28;45095;-60
2023/07/15 03:09:14;;;;;;;;;;;27.60;39.80;;;;;;4898558;28;45444;-60
2023/07/15 03:11:40;;;;;;;;;;;27.60;39.80;;;;;;4892622;28;45489;-59
2023/07/15 03:14:05;;;;;;;;;;;27.60;39.90;;;;;;4894815;28;46611;-59
2023/07/15 03:16:30;;;;;;;;;;;27.60;39.90;;;;;;4886585;28;45144;-60
2023/07/15 03:18:56;;;;;;;;;;;27.60;39.90;;;;;;4883763;28;45448;-59
2023/07/15 03:21:22;;;;;;;;;;;27.60;39.90;;;;;;4886962;28;45448;-59
2023/07/15 03:23:47;;;;;;;;;;;27.60;40.60;;;;;;4891933;28;46211;-60
2023/07/15 03:26:12;;;;;;;;;;;27.60;40.00;;;;;;4891535;28;45247;-60
2023/07/15 03:28:38;;;;;;;;;;;27.60;40.00;;;;;;4894641;28;45260;-57
2023/07/15 03:31:04;;;;;;;;;;;27.60;40.60;;;;;;4875635;28;45313;-57
2023/07/15 03:33:29;;;;;;;;;;;27.60;40.00;;;;;;4889687;28;46239;-57
2023/07/15 03:35:55;;;;;;;;;;;27.60;40.00;;;;;;4867446;28;45586;-58
2023/07/15 03:38:20;;;;;;;;;;;27.60;40.00;;;;;;4895205;28;45304;-59
2023/07/15 03:40:48;;;;;;;;;;;27.60;40.00;;;;;;4880338;28;46278;-59
2023/07/15 03:43:14;;;;;;;;;;;27.60;40.10;;;;;;4888035;28;45915;-58
2023/07/15 03:45:39;;;;;;;;;;;27.50;40.10;;;;;;4889738;28;45536;-57
2023/07/15 03:48:05;;;;;;;;;;;27.50;40.10;;;;;;4889667;28;44743;-59
2023/07/15 03:50:30;;;;;;;;;;;27.50;40.00;;;;;;4887592;28;45740;-59
2023/07/15 03:52:56;;;;;;;;;;;27.50;40.20;;;;;;4894652;28;45957;-60
2023/07/15 03:55:21;;;;;;;;;;;27.50;40.10;;;;;;4890005;28;45431;-58
2023/07/15 03:57:47;;;;;;;;;;;27.50;40.20;;;;;;4892028;28;45344;-60
2023/07/15 04:00:17;;;;;;;;;;;27.50;40.20;;;;;;4885682;28;46298;-59
2023/07/15 04:02:46;;;;;;;;;;;27.50;40.30;;;;;;4886417;28;46252;-59
2023/07/15 04:05:11;;;;;;;;;;;27.50;40.30;;;;;;4889681;28;45545;-57
2023/07/15 04:07:37;;;;;;;;;;;27.50;40.30;;;;;;4895386;28;44881;-60
2023/07/15 04:10:03;;;;;;;;;;;27.50;40.30;;;;;;4892766;28;45416;-56
2023/07/15 04:12:28;;;;;;;;;;;27.50;40.40;;;;;;4862597;28;46185;-58
2023/07/15 04:14:54;;;;;;;;;;;27.50;40.40;;;;;;4891226;28;45227;-58
2023/07/15 04:17:19;;;;;;;;;;;27.50;40.40;;;;;;4883821;28;45180;-57
2023/07/15 04:19:44;;;;;;;;;;;27.50;40.30;;;;;;4892510;28;45500;-60
2023/07/15 04:22:11;;;;;;;;;;;27.50;40.40;;;;;;4886767;28;46237;-60
2023/07/15 04:24:36;;;;;;;;;;;27.50;40.50;;;;;;4890694;28;45065;-60
2023/07/15 04:27:02;;;;;;;;;;;27.50;40.60;;;;;;4885828;28;45338;-57
2023/07/15 04:29:29;;;;;;;;;;;27.40;40.50;;;;;;4892741;28;44667;-59
2023/07/15 04:31:55;;;;;;;;;;;27.40;40.60;;;;;;4878611;28;46094;-58
2023/07/15 04:34:20;;;;;;;;;;;27.40;40.90;;;;;;4891559;28;45570;-57
2023/07/15 04:36:45;;;;;;;;;;;27.40;41.00;;;;;;4887673;28;45070;-60
2023/07/15 04:39:11;;;;;;;;;;;27.40;41.00;;;;;;4895555;28;45250;-60
2023/07/15 04:41:36;;;;;;;;;;;27.40;41.20;;;;;;4892736;28;45186;-58
2023/07/15 04:44:02;;;;;;;;;;;27.40;41.30;;;;;;4896005;28;46692;-59
2023/07/15 04:46:27;;;;;;;;;;;27.30;41.40;;;;;;4890003;28;45546;-60
2023/07/15 04:48:53;;;;;;;;;;;27.30;41.50;;;;;;4897850;28;44999;-59
2023/07/15 04:51:19;;;;;;;;;;;27.30;41.70;;;;;;4894457;28;47006;-60
2023/07/15 04:53:45;;;;;;;;;;;27.20;41.80;;;;;;4902629;28;45299;-59
2023/07/15 04:56:10;;;;;;;;;;;27.20;42.00;;;;;;4896659;28;45261;-59
2023/07/15 04:58:36;;;;;;;;;;;27.20;42.10;;;;;;4882130;29;45875;-59
2023/07/15 05:01:01;;;;;;;;;;;27.20;42.10;;;;;;4893356;28;45923;-57
2023/07/15 05:03:27;;;;;;;;;;;27.20;42.30;;;;;;4924049;28;45190;-59
2023/07/15 05:05:52;;;;;;;;;;;27.20;42.50;;;;;;4915833;28;44940;-59
2023/07/15 05:08:18;;;;;;;;;;;27.20;42.60;;;;;;4922091;28;45416;-59
2023/07/15 05:10:43;;;;;;;;;;;27.10;42.80;;;;;;4916486;28;46034;-60
2023/07/15 05:13:09;;;;;;;;;;;27.10;43.00;;;;;;4907427;28;45422;-60
2023/07/15 05:15:38;;;;;;;;;;;27.10;43.20;;;;;;4866330;28;45374;-57
2023/07/15 05:18:06;;;;;;;;;;;27.00;43.60;;;;;;4894748;28;45390;-58
2023/07/15 05:20:33;;;;;;;;;;;26.90;43.80;;;;;;4896507;28;47067;-60
2023/07/15 05:22:59;;;;;;;;;;;26.90;44.10;;;;;;4901559;28;45466;-58
2023/07/15 05:25:25;;;;;;;;;;;26.90;44.00;;;;;;4890162;28;45245;-59
2023/07/15 05:27:50;;;;;;;;;;;26.90;44.10;;;;;;4903797;28;45305;-59
2023/07/15 05:30:16;;;;;;;;;;;26.90;44.00;;;;;;4894617;28;45461;-58
2023/07/15 05:32:41;;;;;;;;;;;26.90;44.10;;;;;;4899407;28;45509;-58
2023/07/15 05:35:07;;;;;;;;;;;27.00;44.10;;;;;;4894773;28;46320;-59
2023/07/15 05:37:32;;;;;;;;;;;27.00;44.00;;;;;;4902301;28;45360;-59
2023/07/15 05:39:58;;;;;;;;;;;27.00;44.00;;;;;;4903773;28;46125;-60
2023/07/15 05:42:23;;;;;;;;;;;27.40;43.30;;;;;;4900787;28;45310;-58
2023/07/15 05:44:48;;;;;;;;;;;28.70;41.40;;;;;;4906657;28;45203;-59
2023/07/15 05:47:14;;;;;;;;;;;29.60;39.70;;;;;;4890385;28;44935;-59
2023/07/15 05:49:39;;;;;;;;;;;30.00;38.90;;;;;;4904571;28;46033;-53
2023/07/15 05:52:05;;;;;;;;;;;29.30;39.60;;;;;;4896094;28;45008;-58
2023/07/15 05:54:31;;;;;;;;;;;28.70;40.80;;;;;;4902325;28;46706;-59
2023/07/15 05:56:56;;;;;;;;;;;28.30;41.40;;;;;;4897845;28;45571;-59
2023/07/15 05:59:21;;;;;;;;;;;28.00;41.70;;;;;;4899719;28;45203;-59
2023/07/15 06:01:47;;;;;;;;;;;27.90;41.90;;;;;;4853602;28;45606;-59
2023/07/15 06:04:13;;;;;;;;;;;27.80;42.00;;;;;;4874012;29;45315;-58
2023/07/15 06:06:38;;;;;;;;;;;27.80;42.00;;;;;;4891159;28;45056;-59
2023/07/15 06:09:04;;;;;;;;;;;27.70;42.00;;;;;;4893862;28;46177;-59
2023/07/15 06:11:29;;;;;;;;;;;27.80;42.00;;;;;;4889468;28;45146;-58
2023/07/15 06:13:55;;;;;;;;;;;27.80;42.00;;;;;;4893969;28;46142;-58
2023/07/15 06:16:20;;;;;;;;;;;27.80;41.90;;;;;;4879301;28;45528;-57
2023/07/15 06:18:46;;;;;;;;;;;27.80;41.80;;;;;;4875380;28;46318;-59
2023/07/15 06:21:11;;;;;;;;;;;27.80;41.80;;;;;;4891901;28;45204;-59
2023/07/15 06:23:37;;;;;;;;;;;27.80;41.70;;;;;;4899424;28;44685;-59
2023/07/15 06:26:02;;;;;;;;;;;27.80;41.70;;;;;;4890359;28;45941;-59
2023/07/15 06:28:28;;;;;;;;;;;27.80;41.60;;;;;;4895743;28;46964;-59
2023/07/15 06:31:00;;;;;;;;;;;27.90;41.40;;;;;;4883297;28;45493;-59
2023/07/15 06:33:25;;;;;;;;;;;27.90;41.30;;;;;;4891588;28;45023;-59
2023/07/15 06:35:51;;;;;;;;;;;28.00;41.20;;;;;;4890766;28;45501;-59
2023/07/15 06:38:16;;;;;;;;;;;28.10;41.00;;;;;;4892724;28;46030;-59
2023/07/15 06:40:42;;;;;;;;;;;28.20;40.80;;;;;;4887610;28;45557;-58
2023/07/15 06:43:08;;;;;;;;;;;28.30;40.70;;;;;;4894337;28;45241;-58
2023/07/15 06:45:36;;;;;;;;;;;28.40;40.40;;;;;;4878072;28;45694;-59
2023/07/15 06:48:01;;;;;;;;;;;28.40;40.80;;;;;;4888439;28;45261;-60
2023/07/15 06:50:27;;;;;;;;;;;28.60;40.00;;;;;;4885672;28;45446;-59
2023/07/15 06:52:53;;;;;;;;;;;28.60;39.70;;;;;;4896845;28;45227;-59
2023/07/15 06:55:18;;;;;;;;;;;28.70;39.60;;;;;;4891891;28;45198;-59
2023/07/15 06:57:44;;;;;;;;;;;28.80;39.50;;;;;;4877465;29;45349;-57
2023/07/15 07:00:09;;;;;;;;;;;28.80;39.50;;;;;;4888531;28;45779;-59
2023/07/15 07:02:35;;;;;;;;;;;28.80;39.50;;;;;;4887705;28;45699;-58
2023/07/15 07:05:00;;;;;;;;;;;28.80;39.50;;;;;;4891431;28;45573;-58
2023/07/15 07:07:26;;;;;;;;;;;28.80;39.50;;;;;;4887168;28;45866;-59
2023/07/15 07:09:51;;;;;;;;;;;28.80;39.50;;;;;;4889107;28;45142;-59
2023/07/15 07:12:17;;;;;;;;;;;28.70;39.50;;;;;;4885460;28;45579;-58
2023/07/15 07:14:43;;;;;;;;;;;28.70;39.50;;;;;;4891053;28;45555;-59
2023/07/15 07:17:08;;;;;;;;;;;28.70;39.50;;;;;;4884975;28;45417;-60
2023/07/15 07:19:34;;;;;;;;;;;28.70;39.50;;;;;;4892335;28;45264;-58
2023/07/15 07:21:59;;;;;;;;;;;28.70;39.50;;;;;;4889192;28;45501;-58
2023/07/15 07:24:25;;;;;;;;;;;28.80;39.50;;;;;;4895825;28;45688;-59
2023/07/15 07:26:51;;;;;;;;;;;28.70;39.40;;;;;;4871354;28;45898;-58
2023/07/15 07:29:16;;;;;;;;;;;28.80;39.40;;;;;;4889470;28;45607;-58
2023/07/15 07:31:42;;;;;;;;;;;28.80;39.40;;;;;;4879498;28;45625;-59
2023/07/15 07:34:07;;;;;;;;;;;28.80;39.40;;;;;;4887421;28;45731;-58
2023/07/15 07:36:33;;;;;;;;;;;28.90;39.40;;;;;;4888036;28;46009;-59
2023/07/15 07:38:58;;;;;;;;;;;28.90;39.30;;;;;;4891527;28;44884;-56
2023/07/15 07:41:23;;;;;;;;;;;28.90;39.20;;;;;;4887111;28;45330;-59
2023/07/15 07:43:49;;;;;;;;;;;28.90;39.20;;;;;;4896837;28;44799;-59
2023/07/15 07:46:14;;;;;;;;;;;29.00;39.20;;;;;;4882286;28;45337;-59
2023/07/15 07:48:40;;;;;;;;;;;29.00;39.20;;;;;;4893197;28;45500;-58
2023/07/15 07:51:05;;;;;;;;;;;29.00;39.20;;;;;;4888286;28;45466;-59
2023/07/15 07:53:31;;;;;;;;;;;29.00;39.10;;;;;;4890910;28;45690;-59
2023/07/15 07:55:57;;;;;;;;;;;29.00;39.10;;;;;;4888437;28;45138;-58
2023/07/15 07:58:22;;;;;;;;;;;29.10;39.00;;;;;;4887435;28;45282;-59
2023/07/15 08:00:48;;;;;;;;;;;29.10;38.90;;;;;;4884771;28;45446;-59
2023/07/15 08:03:14;;;;;;;;;;;29.20;39.00;;;;;;4892196;28;44893;-58
2023/07/15 08:05:40;;;;;;;;;;;29.20;38.90;;;;;;4885195;28;45293;-58
2023/07/15 08:08:06;;;;;;;;;;;29.20;38.80;;;;;;4869592;28;45683;-59
2023/07/15 08:10:31;;;;;;;;;;;29.20;38.80;;;;;;4884888;28;45441;-59
2023/07/15 08:12:57;;;;;;;;;;;29.20;38.70;;;;;;4890376;28;45397;-59
2023/07/15 08:15:22;;;;;;;;;;;29.30;38.70;;;;;;4880410;28;46668;-57
2023/07/15 08:17:48;;;;;;;;;;;29.30;38.70;;;;;;4885115;28;45420;-58
2023/07/15 08:20:13;;;;;;;;;;;29.30;38.70;;;;;;4883986;28;45661;-59
2023/07/15 08:22:39;;;;;;;;;;;29.30;38.60;;;;;;4888521;28;44881;-59
2023/07/15 08:25:05;;;;;;;;;;;29.30;38.60;;;;;;4884038;28;46757;-60
2023/07/15 08:27:30;;;;;;;;;;;29.30;38.50;;;;;;4866052;28;45928;-58
2023/07/15 08:29:56;;;;;;;;;;;29.40;38.50;;;;;;4887822;28;45360;-59
2023/07/15 08:32:21;;;;;;;;;;;29.40;38.50;;;;;;4875280;28;46096;-58
2023/07/15 08:34:59;;;;;;;;;;;29.40;38.70;;;;;;4889838;28;45938;-59
2023/07/15 08:37:24;;;;;;;;;;;29.40;38.50;;;;;;4884801;28;45460;-59
2023/07/15 08:39:50;;;;;;;;;;;29.50;38.50;;;;;;4877336;29;44868;-58
2023/07/15 08:42:15;;;;;;;;;;;29.50;38.50;;;;;;4886044;28;45290;-59
2023/07/15 08:44:41;;;;;;;;;;;29.50;38.40;;;;;;4893523;28;46880;-57
2023/07/15 08:47:06;;;;;;;;;;;29.50;38.50;;;;;;4882735;28;45627;-59
2023/07/15 08:49:32;;;;;;;;;;;29.50;38.40;;;;;;4893379;28;45734;-59
2023/07/15 08:51:58;;;;;;;;;;;29.50;38.40;;;;;;4889884;28;45452;-59
2023/07/15 08:54:23;;;;;;;;;;;29.50;38.30;;;;;;4878263;28;45341;-59
2023/07/15 08:56:49;;;;;;;;;;;29.60;38.40;;;;;;4890972;28;45767;-59
2023/07/15 08:59:18;;;;;;;;;;;29.60;38.40;;;;;;4890855;28;45528;-58
2023/07/15 09:01:43;;;;;;;;;;;29.60;38.30;;;;;;4882597;28;46287;-59
2023/07/15 09:04:09;;;;;;;;;;;29.60;38.30;;;;;;4891073;28;45195;-59
2023/07/15 09:06:34;;;;;;;;;;;29.60;38.20;;;;;;4877748;28;46010;-59
2023/07/15 09:09:00;;;;;;;;;;;29.60;38.20;;;;;;4890106;28;44718;-58
2023/07/15 09:11:36;;;;;;;;;;;29.60;38.20;;;;;;4885118;28;45846;-59
2023/07/15 09:14:02;;;;;;;;;;;29.70;38.40;;;;;;4891364;28;45397;-59
2023/07/15 09:16:29;;;;;;;;;;;29.70;38.30;;;;;;4862603;28;45229;-59
2023/07/15 09:18:55;;;;;;;;;;;29.70;38.30;;;;;;4886740;28;44966;-59
2023/07/15 09:21:20;;;;;;;;;;;29.80;38.30;;;;;;4864558;29;45346;-60
2023/07/15 09:23:46;;;;;;;;;;;29.80;38.40;;;;;;4878044;28;45733;-60
2023/07/15 09:26:12;;;;;;;;;;;29.80;38.30;;;;;;4906411;28;45203;-59
2023/07/15 09:28:38;;;;;;;;;;;29.80;38.30;;;;;;4910153;28;45550;-60
2023/07/15 09:31:04;;;;;;;;;;;29.80;38.20;;;;;;4906233;28;45650;-59
2023/07/15 09:33:33;;;;;;;;;;;29.80;38.20;;;;;;4895603;28;44868;-60
2023/07/15 09:35:59;;;;;;;;;;;29.90;38.30;;;;;;4890476;28;45236;-60
2023/07/15 09:38:28;;;;;;;;;;;29.90;38.30;;;;;;4880220;28;45601;-60
2023/07/15 09:40:54;;;;;;;;;;;29.90;38.30;;;;;;4909728;28;46057;-60
2023/07/15 09:43:19;;;;;;;;;;;30.00;38.20;;;;;;4912747;28;45283;-60
2023/07/15 09:45:45;;;;;;;;;;;30.00;38.20;;;;;;4904890;28;45586;-60
2023/07/15 09:48:11;;;;;;;;;;;30.00;38.20;;;;;;4911068;28;45795;-60
2023/07/15 09:50:37;;;;;;;;;;;30.00;38.20;;;;;;4906023;28;45540;-60
2023/07/15 09:53:03;;;;;;;;;;;30.00;38.10;;;;;;4893570;28;45741;-60
2023/07/15 09:55:28;;;;;;;;;;;30.00;38.10;;;;;;4909288;28;45234;-59
2023/07/15 09:58:08;;;;;;;;;;;30.00;38.10;;;;;;4914727;28;45771;-60
2023/07/15 10:00:34;;;;;;;;;;;30.10;38.10;;;;;;4906345;28;45028;-60
2023/07/15 10:03:00;;;;;;;;;;;30.10;38.10;;;;;;4894992;28;45314;-60
2023/07/15 10:05:28;;;;;;;;;;;30.10;38.10;;;;;;4908210;28;45379;-60
2023/07/15 10:07:54;;;;;;;;;;;30.10;38.10;;;;;;4896258;28;45669;-60
2023/07/15 10:10:20;;;;;;;;;;;30.10;38.00;;;;;;4892292;28;45199;-60
2023/07/15 10:12:45;;;;;;;;;;;30.10;38.00;;;;;;4913551;28;45103;-60
2023/07/15 10:15:11;;;;;;;;;;;30.10;38.00;;;;;;4909205;28;45212;-60
2023/07/15 10:17:36;;;;;;;;;;;30.20;38.70;;;;;;4888293;28;45479;-61
2023/07/15 10:20:03;;;;;;;;;;;30.20;38.00;;;;;;4911593;28;45549;-59
2023/07/15 10:22:32;;;;;;;;;;;30.20;38.00;;;;;;4891534;28;45949;-60
2023/07/15 10:24:57;;;;;;;;;;;30.20;38.60;;;;;;4914021;28;45512;-60
2023/07/15 10:27:30;;;;;;;;;;;30.20;37.90;;;;;;4905462;28;45651;-59
2023/07/15 10:30:14;;;;;;;;;;;30.20;37.90;;;;;;4896745;28;46237;-60
2023/07/15 10:32:58;;;;;;;;;;;30.20;37.90;;;;;;4906701;28;46070;-60
2023/07/15 10:35:25;;;;;;;;;;;30.20;37.90;;;;;;4904181;28;45812;-59
2023/07/15 10:37:51;;;;;;;;;;;30.30;37.90;;;;;;4911044;28;45369;-60
2023/07/15 10:40:36;;;;;;;;;;;30.30;37.90;;;;;;4908243;28;45381;-60
2023/07/15 10:43:05;;;;;;;;;;;30.30;37.90;;;;;;4913066;28;46680;-60
2023/07/15 10:45:35;;;;;;;;;;;30.30;37.80;;;;;;4904469;28;45801;-60
2023/07/15 10:48:05;;;;;;;;;;;30.40;37.90;;;;;;4890520;28;46083;-60
2023/07/15 10:50:31;;;;;;;;;;;30.40;37.90;;;;;;4907148;28;45045;-59
2023/07/15 10:53:16;;;;;;;;;;;30.40;37.80;;;;;;4912405;28;44931;-60
2023/07/15 10:55:41;;;;;;;;;;;30.40;38.50;;;;;;4889991;28;45622;-60
2023/07/15 10:58:07;;;;;;;;;;;30.40;37.80;;;;;;4913607;28;45216;-60
2023/07/15 11:00:32;;;;;;;;;;;30.40;37.80;;;;;;4902777;28;45280;-60
2023/07/15 11:02:58;;;;;;;;;;;30.40;37.80;;;;;;4896509;28;45220;-60
2023/07/15 11:05:23;;;;;;;;;;;30.40;37.80;;;;;;4905149;28;45261;-59
2023/07/15 11:07:49;;;;;;;;;;;30.40;37.80;;;;;;4911164;28;45606;-60
2023/07/15 11:10:15;;;;;;;;;;;30.40;37.80;;;;;;4908854;28;45909;-60
2023/07/15 11:12:40;;;;;;;;;;;30.40;37.80;;;;;;4912818;28;45600;-60
2023/07/15 11:15:06;;;;;;;;;;;30.50;38.50;;;;;;4909884;28;45288;-60
2023/07/15 11:17:31;;;;;;;;;;;30.50;37.80;;;;;;4890848;28;45308;-60
2023/07/15 11:19:58;;;;;;;;;;;30.50;37.80;;;;;;4911350;28;46151;-60
2023/07/15 11:22:23;;;;;;;;;;;30.50;37.80;;;;;;4907239;28;45360;-59
2023/07/15 11:24:49;;;;;;;;;;;30.50;37.90;;;;;;4897430;28;44727;-60
2023/07/15 11:27:14;;;;;;;;;;;30.50;37.80;;;;;;4897326;28;45423;-60
2023/07/15 11:29:40;;;;;;;;;;;30.50;37.90;;;;;;4915311;28;45500;-60
2023/07/15 11:32:06;;;;;;;;;;;30.50;37.80;;;;;;4906260;28;45384;-60
2023/07/15 11:34:32;;;;;;;;;;;30.50;38.00;;;;;;4914848;28;45244;-60
2023/07/15 11:37:02;;;;;;;;;;;30.50;37.90;;;;;;4911886;28;45684;-62
2023/07/15 11:39:29;;;;;;;;;;;30.50;37.80;;;;;;4910978;28;45752;-60
2023/07/15 11:41:54;;;;;;;;;;;30.60;37.90;;;;;;4891020;28;47309;-60
2023/07/15 11:44:20;;;;;;;;;;;30.60;37.90;;;;;;4914371;28;45539;-60
2023/07/15 11:46:46;;;;;;;;;;;30.60;37.90;;;;;;4904729;28;44938;-60
2023/07/15 11:49:12;;;;;;;;;;;30.60;37.90;;;;;;4911185;28;44776;-60
2023/07/15 11:51:40;;;;;;;;;;;30.60;37.90;;;;;;4909765;28;45896;-60
2023/07/15 11:54:09;;;;;;;;;;;30.60;37.90;;;;;;4910519;28;44688;-60
2023/07/15 11:56:38;;;;;;;;;;;30.60;37.90;;;;;;4905019;28;45565;-61
2023/07/15 11:59:07;;;;;;;;;;;30.60;37.80;;;;;;4913896;28;45741;-60
2023/07/15 12:01:33;;;;;;;;;;;30.60;37.80;;;;;;4901940;28;45617;-60
2023/07/15 12:03:58;;;;;;;;;;;30.60;37.80;;;;;;4909529;28;46869;-60
2023/07/15 12:06:27;;;;;;;;;;;30.60;37.80;;;;;;4903670;28;44706;-61
2023/07/15 12:09:00;;;;;;;;;;;30.60;37.80;;;;;;4911136;28;45259;-59
2023/07/15 12:11:25;;;;;;;;;;;30.70;37.90;;;;;;4908689;28;45203;-60
2023/07/15 12:13:51;;;;;;;;;;;30.70;37.90;;;;;;4912618;28;44976;-59
2023/07/15 12:16:17;;;;;;;;;;;30.70;37.90;;;;;;4899262;28;45144;-60
2023/07/15 12:18:43;;;;;;;;;;;30.70;37.90;;;;;;4904678;28;45716;-60
2023/07/15 12:21:08;;;;;;;;;;;30.70;37.90;;;;;;4902659;28;45512;-60
2023/07/15 12:23:34;;;;;;;;;;;30.70;37.90;;;;;;4910384;28;45152;-60
2023/07/15 12:25:59;;;;;;;;;;;30.70;37.80;;;;;;4902681;28;45319;-61
2023/07/15 12:28:25;;;;;;;;;;;30.70;37.90;;;;;;4908712;28;45704;-60
2023/07/15 12:30:50;;;;;;;;;;;30.70;37.80;;;;;;4895472;28;45574;-60
2023/07/15 12:33:17;;;;;;;;;;;30.70;37.80;;;;;;4890555;28;45433;-59
2023/07/15 12:35:42;;;;;;;;;;;30.70;37.80;;;;;;4887410;28;46153;-60
2023/07/15 12:38:08;;;;;;;;;;;30.70;37.80;;;;;;4893534;28;45614;-58
2023/07/15 12:40:34;;;;;;;;;;;30.80;37.90;;;;;;4903786;28;45395;-61
2023/07/15 12:42:59;;;;;;;;;;;30.80;37.90;;;;;;4909967;28;46794;-60
2023/07/15 12:45:25;;;;;;;;;;;30.80;37.90;;;;;;4886784;28;45668;-61
2023/07/15 12:47:50;;;;;;;;;;;30.80;37.90;;;;;;4905481;28;45279;-60
2023/07/15 12:50:16;;;;;;;;;;;30.80;37.80;;;;;;4904937;28;45516;-60
2023/07/15 12:52:41;;;;;;;;;;;30.80;37.90;;;;;;4894952;28;46091;-60
2023/07/15 12:55:07;;;;;;;;;;;30.80;37.80;;;;;;4904736;28;45432;-60
2023/07/15 12:57:32;;;;;;;;;;;30.80;37.90;;;;;;4905561;28;45622;-60
2023/07/15 12:59:58;;;;;;;;;;;30.80;37.90;;;;;;4902520;28;46533;-61
2023/07/15 13:02:23;;;;;;;;;;;30.90;37.90;;;;;;4860247;28;45498;-60
2023/07/15 13:04:49;;;;;;;;;;;30.80;37.90;;;;;;4888829;28;45187;-60
2023/07/15 13:07:16;;;;;;;;;;;30.90;37.90;;;;;;4885529;28;45355;-60
2023/07/15 13:09:41;;;;;;;;;;;30.90;37.90;;;;;;4891755;28;46338;-60
2023/07/15 13:12:07;;;;;;;;;;;30.90;37.90;;;;;;4889760;28;45079;-60
2023/07/15 13:14:33;;;;;;;;;;;30.90;37.90;;;;;;4891477;28;44920;-60
2023/07/15 13:16:58;;;;;;;;;;;30.90;37.80;;;;;;4883694;28;45645;-60
2023/07/15 13:19:24;;;;;;;;;;;30.90;37.90;;;;;;4889976;28;45313;-60
2023/07/15 13:21:49;;;;;;;;;;;30.90;37.90;;;;;;4885843;28;45336;-60
2023/07/15 13:24:15;;;;;;;;;;;30.90;37.90;;;;;;4890598;28;44807;-60
2023/07/15 13:26:40;;;;;;;;;;;31.00;37.90;;;;;;4887142;28;46135;-60
2023/07/15 13:29:06;;;;;;;;;;;30.90;37.80;;;;;;4893407;28;45405;-60
2023/07/15 13:31:31;;;;;;;;;;;31.00;37.90;;;;;;4883760;28;45035;-62
2023/07/15 13:33:56;;;;;;;;;;;31.00;37.90;;;;;;4890097;28;45269;-60
2023/07/15 13:36:22;;;;;;;;;;;31.00;37.90;;;;;;4889965;28;45411;-60
2023/07/15 13:38:47;;;;;;;;;;;31.00;37.90;;;;;;4895450;28;46166;-60
2023/07/15 13:41:13;;;;;;;;;;;31.00;38.00;;;;;;4893516;28;45363;-60
2023/07/15 13:43:39;;;;;;;;;;;31.00;38.00;;;;;;4893775;28;45579;-60
2023/07/15 13:46:04;;;;;;;;;;;31.00;37.90;;;;;;4885843;28;45695;-60
2023/07/15 13:48:30;;;;;;;;;;;31.00;37.90;;;;;;4891747;28;45028;-60
2023/07/15 13:50:55;;;;;;;;;;;31.00;37.90;;;;;;4888454;28;45317;-60
2023/07/15 13:53:21;;;;;;;;;;;31.00;37.90;;;;;;4896980;28;45756;-61
2023/07/15 13:55:46;;;;;;;;;;;31.00;37.90;;;;;;4892128;28;45703;-61
2023/07/15 13:58:12;;;;;;;;;;;31.00;37.90;;;;;;4899493;28;45479;-61
2023/07/15 14:00:37;;;;;;;;;;;31.00;37.90;;;;;;4889882;28;45432;-60
2023/07/15 14:03:03;;;;;;;;;;;31.00;37.90;;;;;;4916077;28;45390;-59
2023/07/15 14:05:28;;;;;;;;;;;31.00;37.90;;;;;;4912679;28;45240;-60
2023/07/15 14:07:54;;;;;;;;;;;31.10;37.90;;;;;;4919947;28;45444;-60
2023/07/15 14:10:19;;;;;;;;;;;31.10;37.90;;;;;;4917381;28;45502;-60
2023/07/15 14:12:45;;;;;;;;;;;31.10;37.90;;;;;;4920410;28;44768;-60
2023/07/15 14:15:10;;;;;;;;;;;31.10;37.90;;;;;;4908584;28;45384;-60
2023/07/15 14:17:35;;;;;;;;;;;31.10;37.90;;;;;;4910145;28;45297;-60
2023/07/15 14:20:01;;;;;;;;;;;31.10;37.90;;;;;;4918267;28;45230;-62
2023/07/15 14:22:30;;;;;;;;;;;31.10;37.90;;;;;;4913566;28;45093;-61
2023/07/15 14:24:55;;;;;;;;;;;31.10;37.90;;;;;;4913828;28;45503;-61
2023/07/15 14:27:21;;;;;;;;;;;31.10;37.90;;;;;;4913613;28;44966;-61
2023/07/15 14:29:46;;;;;;;;;;;31.10;37.90;;;;;;4920925;28;44976;-61
2023/07/15 14:32:12;;;;;;;;;;;31.20;37.90;;;;;;4908892;28;45397;-61
2023/07/15 14:34:38;;;;;;;;;;;31.10;37.90;;;;;;4918604;28;45660;-60
2023/07/15 14:37:03;;;;;;;;;;;31.10;38.00;;;;;;4895669;28;45646;-60
2023/07/15 14:39:29;;;;;;;;;;;31.20;37.90;;;;;;4919769;28;45042;-60
2023/07/15 14:41:54;;;;;;;;;;;31.20;37.90;;;;;;4918363;28;44745;-60
2023/07/15 14:44:19;;;;;;;;;;;31.20;37.90;;;;;;4921052;28;45218;-61
2023/07/15 14:46:46;;;;;;;;;;;31.20;37.90;;;;;;4905449;28;45662;-61
2023/07/15 14:49:11;;;;;;;;;;;31.20;37.90;;;;;;4917982;28;45373;-61
2023/07/15 14:51:37;;;;;;;;;;;31.20;37.90;;;;;;4915426;28;45201;-61
2023/07/15 14:54:02;;;;;;;;;;;31.20;37.90;;;;;;4914568;28;45569;-61
2023/07/15 14:56:28;;;;;;;;;;;31.20;37.90;;;;;;4892360;28;46243;-60
2023/07/15 14:58:53;;;;;;;;;;;31.20;37.90;;;;;;4918189;28;45169;-60
2023/07/15 15:01:19;;;;;;;;;;;31.20;37.90;;;;;;4910661;28;46190;-61
2023/07/15 15:03:45;;;;;;;;;;;31.20;37.90;;;;;;4898136;28;45241;-60
2023/07/15 15:06:10;;;;;;;;;;;31.20;37.90;;;;;;4913905;28;46116;-61
2023/07/15 15:08:36;;;;;;;;;;;31.20;37.90;;;;;;4921768;28;45215;-61
2023/07/15 15:11:01;;;;;;;;;;;31.20;37.90;;;;;;4904540;28;45287;-61
2023/07/15 15:13:27;;;;;;;;;;;31.20;37.80;;;;;;4916471;28;45217;-61
2023/07/15 15:15:52;;;;;;;;;;;31.20;37.80;;;;;;4909604;28;46103;-61
2023/07/15 15:18:17;;;;;;;;;;;31.30;38.00;;;;;;4896853;28;45586;-61
2023/07/15 15:20:43;;;;;;;;;;;31.20;37.80;;;;;;4913313;28;45279;-61
2023/07/15 15:23:10;;;;;;;;;;;31.30;37.90;;;;;;4912721;28;46919;-61
2023/07/15 15:25:36;;;;;;;;;;;31.30;37.90;;;;;;4894461;28;47410;-61
2023/07/15 15:28:01;;;;;;;;;;;31.30;37.90;;;;;;4912430;28;45403;-61
2023/07/15 15:30:27;;;;;;;;;;;31.30;37.90;;;;;;4905800;28;45391;-60
2023/07/15 15:32:52;;;;;;;;;;;31.30;37.90;;;;;;4910921;28;45456;-60
2023/07/15 15:35:19;;;;;;;;;;;31.30;37.90;;;;;;4912756;28;45193;-61
2023/07/15 15:37:45;;;;;;;;;;;31.30;37.90;;;;;;4915930;28;44879;-60
2023/07/15 15:40:10;;;;;;;;;;;31.30;37.90;;;;;;4909721;28;45568;-60
2023/07/15 15:42:36;;;;;;;;;;;31.30;37.90;;;;;;4920768;28;45893;-61
2023/07/15 15:45:03;;;;;;;;;;;31.30;37.90;;;;;;4916980;28;45499;-61
2023/07/15 15:47:28;;;;;;;;;;;31.30;37.80;;;;;;4908536;28;45673;-60
2023/07/15 15:49:54;;;;;;;;;;;31.30;37.90;;;;;;4916361;28;45399;-62
2023/07/15 15:52:19;;;;;;;;;;;31.30;37.90;;;;;;4912930;28;45868;-60
2023/07/15 15:54:45;;;;;;;;;;;31.30;37.90;;;;;;4909448;28;45505;-60
2023/07/15 15:57:10;;;;;;;;;;;31.40;37.90;;;;;;4912391;28;45206;-61
2023/07/15 15:59:36;;;;;;;;;;;31.40;37.90;;;;;;4915662;28;45335;-62
2023/07/15 16:02:01;;;;;;;;;;;31.40;37.90;;;;;;4904990;28;45849;-60
2023/07/15 16:04:27;;;;;;;;;;;31.40;37.90;;;;;;4911571;28;45239;-60
2023/07/15 16:06:52;;;;;;;;;;;31.40;37.90;;;;;;4911441;28;45990;-60
2023/07/15 16:09:18;;;;;;;;;;;31.40;37.90;;;;;;4914610;28;45214;-61
2023/07/15 16:11:43;;;;;;;;;;;31.40;37.90;;;;;;4910835;28;45691;-61
2023/07/15 16:14:09;;;;;;;;;;;31.40;37.90;;;;;;4912143;28;45614;-60
2023/07/15 16:16:36;;;;;;;;;;;31.40;37.90;;;;;;4904035;28;45356;-61
2023/07/15 16:19:04;;;;;;;;;;;31.40;37.90;;;;;;4893659;28;45565;-60
2023/07/15 16:21:30;;;;;;;;;;;31.40;37.90;;;;;;4911847;28;45534;-59
2023/07/15 16:23:55;;;;;;;;;;;31.40;37.90;;;;;;4915817;28;45365;-60
2023/07/15 16:26:21;;;;;;;;;;;31.40;37.80;;;;;;4908183;28;45331;-60
2023/07/15 16:28:46;;;;;;;;;;;31.40;37.80;;;;;;4912152;28;45252;-60
2023/07/15 16:31:11;;;;;;;;;;;31.40;37.90;;;;;;4903343;28;45567;-60
2023/07/15 16:33:37;;;;;;;;;;;31.40;37.90;;;;;;4915272;28;45327;-61
2023/07/15 16:36:03;;;;;;;;;;;31.40;37.80;;;;;;4903570;28;45520;-60
2023/07/15 16:38:28;;;;;;;;;;;31.40;38.50;;;;;;4918324;28;45243;-60
2023/07/15 16:40:53;;;;;;;;;;;31.50;37.90;;;;;;4915641;28;45040;-60
2023/07/15 16:43:19;;;;;;;;;;;31.40;37.80;;;;;;4921134;28;45606;-60
2023/07/15 16:45:44;;;;;;;;;;;31.40;37.80;;;;;;4910998;28;45421;-60
2023/07/15 16:48:10;;;;;;;;;;;31.40;37.80;;;;;;4912175;28;45544;-61
2023/07/15 16:50:35;;;;;;;;;;;31.40;37.90;;;;;;4913978;28;45165;-60
2023/07/15 16:53:01;;;;;;;;;;;31.40;37.80;;;;;;4921361;28;45414;-61
2023/07/15 16:55:26;;;;;;;;;;;31.40;37.80;;;;;;4916039;28;45634;-62
2023/07/15 16:57:52;;;;;;;;;;;31.40;37.80;;;;;;4917273;28;45302;-61
2023/07/15 17:00:17;;;;;;;;;;;31.40;37.90;;;;;;4916648;28;45566;-61
2023/07/15 17:02:43;;;;;;;;;;;31.40;37.90;;;;;;4920000;28;45623;-60
2023/07/15 17:05:08;;;;;;;;;;;31.40;37.90;;;;;;4917647;28;45107;-60
2023/07/15 17:07:34;;;;;;;;;;;31.40;37.90;;;;;;4886152;28;45268;-61
2023/07/15 17:09:59;;;;;;;;;;;31.40;38.00;;;;;;4919944;28;45645;-61